createdAt,value
2017-12-30T00:00:18.934Z,98.30
2017-12-30T00:02:46.452Z,98.30
2017-12-30T00:05:14.011Z,98.30
2017-12-30T00:07:41.537Z,98.10
2017-12-30T00:10:09.054Z,98.10
2017-12-30T00:12:36.617Z,97.90
2017-12-30T00:15:04.135Z,97.90
2017-12-30T00:17:32.448Z,97.90
2017-12-30T00:19:59.998Z,97.70
2017-12-30T00:22:28.350Z,97.40
2017-12-30T00:24:55.876Z,97.40
2017-12-30T00:27:23.436Z,97.10
2017-12-30T00:29:50.960Z,97.00
2017-12-30T00:32:18.683Z,96.80
2017-12-30T00:34:47.060Z,96.30
2017-12-30T00:37:14.587Z,96.30
2017-12-30T00:39:42.140Z,96.40
2017-12-30T00:42:09.693Z,96.30
2017-12-30T00:44:37.947Z,96.30
2017-12-30T00:47:05.470Z,96.50
2017-12-30T00:49:33.028Z,96.50
2017-12-30T00:52:01.312Z,96.80
2017-12-30T00:54:28.875Z,96.80
2017-12-30T00:56:57.163Z,96.80
2017-12-30T00:59:24.717Z,96.80
2017-12-30T01:01:52.236Z,96.90
2017-12-30T01:04:19.816Z,97.00
2017-12-30T01:06:47.333Z,97.20
2017-12-30T01:09:14.930Z,97.10
2017-12-30T01:11:42.441Z,97.20
2017-12-30T01:14:09.974Z,97.20
2017-12-30T01:16:37.527Z,97.00
2017-12-30T01:19:05.119Z,97.20
2017-12-30T01:21:32.664Z,97.20
2017-12-30T01:24:00.317Z,97.30
2017-12-30T01:26:27.863Z,97.10
2017-12-30T01:28:55.376Z,97.10
2017-12-30T01:31:23.395Z,97.00
2017-12-30T01:33:50.912Z,97.00
2017-12-30T01:36:18.494Z,96.90
2017-12-30T01:38:46.016Z,96.90
2017-12-30T01:41:14.287Z,96.50
2017-12-30T01:43:41.875Z,96.50
2017-12-30T01:46:09.399Z,96.40
2017-12-30T01:51:33.004Z,96.10
2017-12-30T01:54:00.567Z,95.80
2017-12-30T01:56:28.085Z,95.70
2017-12-30T01:58:55.651Z,95.40
2017-12-30T02:01:23.183Z,95.20
2017-12-30T02:03:50.730Z,95.10
2017-12-30T02:06:18.236Z,95.00
2017-12-30T02:08:46.554Z,95.00
2017-12-30T02:11:14.071Z,95.00
2017-12-30T02:13:42.389Z,95.30
2017-12-30T02:16:09.904Z,95.30
2017-12-30T02:18:37.471Z,95.40
2017-12-30T02:21:04.979Z,95.70
2017-12-30T02:23:32.509Z,95.80
2017-12-30T02:26:00.047Z,95.80
2017-12-30T02:28:27.574Z,96.00
2017-12-30T02:30:55.114Z,96.10
2017-12-30T02:33:22.633Z,95.80
2017-12-30T02:35:50.200Z,96.10
2017-12-30T02:38:17.710Z,96.10
2017-12-30T02:40:45.252Z,96.30
2017-12-30T02:43:13.531Z,95.50
2017-12-30T02:45:41.841Z,95.20
2017-12-30T02:48:09.392Z,95.20
2017-12-30T02:50:37.675Z,95.10
2017-12-30T02:53:05.214Z,95.10
2017-12-30T02:55:32.740Z,95.00
2017-12-30T02:58:00.283Z,94.70
2017-12-30T03:00:27.812Z,94.80
2017-12-30T03:02:55.375Z,94.70
2017-12-30T03:05:22.887Z,94.60
2017-12-30T03:07:50.407Z,94.70
2017-12-30T03:10:17.943Z,94.80
2017-12-30T03:12:45.455Z,94.60
2017-12-30T03:15:13.000Z,94.60
2017-12-30T03:17:41.280Z,94.60
2017-12-30T03:20:08.818Z,94.60
2017-12-30T03:22:36.331Z,94.60
2017-12-30T03:25:04.667Z,94.60
2017-12-30T03:27:32.176Z,94.60
2017-12-30T03:29:59.685Z,94.40
2017-12-30T03:32:27.226Z,94.50
2017-12-30T03:34:54.729Z,94.70
2017-12-30T03:37:22.278Z,95.00
2017-12-30T03:39:49.786Z,95.00
2017-12-30T03:42:17.324Z,95.10
2017-12-30T03:44:45.607Z,95.60
2017-12-30T03:47:13.932Z,95.50
2017-12-30T03:49:41.462Z,95.50
2017-12-30T03:52:09.023Z,95.50
2017-12-30T03:54:36.546Z,95.50
2017-12-30T03:57:04.069Z,95.30
2017-12-30T03:59:31.623Z,95.20
2017-12-30T04:01:59.132Z,95.10
2017-12-30T04:04:26.684Z,95.00
2017-12-30T04:06:54.192Z,94.80
2017-12-30T04:09:21.747Z,94.70
2017-12-30T04:11:50.015Z,94.40
2017-12-30T04:14:17.552Z,94.20
2017-12-30T04:16:45.064Z,94.20
2017-12-30T04:19:12.599Z,93.90
2017-12-30T04:21:40.879Z,93.50
2017-12-30T04:24:08.436Z,93.50
2017-12-30T04:26:36.000Z,93.60
2017-12-30T04:29:04.283Z,93.70
2017-12-30T04:31:32.604Z,93.70
2017-12-30T04:34:00.107Z,93.60
2017-12-30T04:36:27.656Z,93.60
2017-12-30T04:38:55.259Z,93.60
2017-12-30T04:41:22.813Z,93.40
2017-12-30T04:43:50.319Z,93.30
2017-12-30T04:46:17.859Z,93.40
2017-12-30T04:48:45.358Z,93.60
2017-12-30T04:51:12.922Z,93.40
2017-12-30T04:53:40.450Z,93.50
2017-12-30T04:56:07.958Z,93.40
2017-12-30T04:58:35.502Z,93.20
2017-12-30T05:01:03.824Z,93.20
2017-12-30T05:03:31.356Z,93.20
2017-12-30T05:05:58.863Z,93.10
2017-12-30T05:08:26.428Z,93.40
2017-12-30T05:10:53.943Z,93.50
2017-12-30T05:13:21.479Z,93.40
2017-12-30T05:15:48.982Z,93.40
2017-12-30T05:18:17.294Z,93.70
2017-12-30T05:20:44.794Z,93.70
2017-12-30T05:23:12.346Z,93.90
2017-12-30T05:25:39.867Z,94.10
2017-12-30T05:28:07.436Z,93.90
2017-12-30T05:30:34.951Z,94.00
2017-12-30T05:33:02.461Z,94.00
2017-12-30T05:35:30.007Z,94.40
2017-12-30T05:37:57.514Z,94.70
2017-12-30T05:40:25.057Z,95.10
2017-12-30T05:42:52.575Z,95.60
2017-12-30T05:45:20.123Z,95.90
2017-12-30T05:47:47.653Z,96.10
2017-12-30T05:50:15.205Z,96.40
2017-12-30T05:52:43.506Z,96.80
2017-12-30T05:55:11.840Z,96.90
2017-12-30T05:57:39.377Z,96.90
2017-12-30T06:00:06.939Z,96.80
2017-12-30T06:02:35.211Z,97.40
2017-12-30T06:05:02.720Z,97.40
2017-12-30T06:07:30.263Z,97.80
2017-12-30T06:09:58.534Z,97.90
2017-12-30T06:12:26.091Z,97.80
2017-12-30T06:14:53.591Z,97.80
2017-12-30T06:17:21.905Z,98.00
2017-12-30T06:19:49.418Z,98.00
2017-12-30T06:22:17.031Z,98.10
2017-12-30T06:24:44.520Z,97.90
2017-12-30T06:27:12.026Z,98.00
2017-12-30T06:29:39.571Z,97.90
2017-12-30T06:32:07.084Z,98.20
2017-12-30T06:34:34.626Z,98.20
2017-12-30T06:37:02.134Z,98.10
2017-12-30T06:39:29.689Z,98.00
2017-12-30T06:41:57.203Z,98.20
2017-12-30T06:44:25.533Z,98.00
2017-12-30T06:46:53.071Z,98.00
2017-12-30T06:49:21.347Z,98.30
2017-12-30T06:51:48.883Z,98.30
2017-12-30T06:54:16.387Z,98.50
2017-12-30T06:56:43.937Z,98.70
2017-12-30T06:59:11.441Z,98.70
2017-12-30T07:01:38.998Z,98.60
2017-12-30T07:04:06.528Z,98.80
2017-12-30T07:06:34.068Z,99.00
2017-12-30T07:09:02.339Z,98.50
2017-12-30T07:11:29.899Z,98.50
2017-12-30T07:13:57.404Z,98.90
2017-12-30T07:16:24.996Z,98.60
2017-12-30T07:18:52.546Z,98.50
2017-12-30T07:21:20.145Z,98.80
2017-12-30T07:23:47.706Z,98.80
2017-12-30T07:26:15.227Z,98.90
2017-12-30T07:28:42.770Z,98.80
2017-12-30T07:31:10.288Z,99.10
2017-12-30T07:33:37.870Z,98.90
2017-12-30T07:36:06.219Z,99.00
2017-12-30T07:38:33.927Z,99.00
2017-12-30T07:41:01.442Z,99.10
2017-12-30T07:43:28.959Z,99.70
2017-12-30T07:45:56.512Z,99.40
2017-12-30T07:48:24.022Z,99.40
2017-12-30T07:50:52.353Z,99.30
2017-12-30T07:53:19.862Z,99.30
2017-12-30T07:55:47.407Z,99.20
2017-12-30T07:58:14.919Z,99.40
2017-12-30T08:00:44.013Z,99.20
2017-12-30T08:03:19.861Z,99.20
2017-12-30T08:05:49.284Z,99.10
2017-12-30T08:08:16.803Z,98.90
2017-12-30T08:10:45.083Z,99.00
2017-12-30T08:13:13.443Z,99.00
2017-12-30T08:15:40.976Z,99.00
2017-12-30T08:18:08.528Z,98.90
2017-12-30T08:20:36.040Z,98.80
2017-12-30T08:23:03.591Z,98.60
2017-12-30T08:25:31.112Z,99.00
2017-12-30T08:27:58.677Z,98.70
2017-12-30T08:30:26.175Z,98.50
2017-12-30T08:32:54.145Z,98.60
2017-12-30T08:35:21.647Z,98.60
2017-12-30T08:37:49.159Z,98.80
2017-12-30T08:40:16.782Z,98.90
2017-12-30T08:42:44.328Z,99.00
2017-12-30T08:45:11.876Z,99.30
2017-12-30T08:47:39.387Z,99.00
2017-12-30T08:50:07.705Z,99.00
2017-12-30T08:52:35.261Z,98.90
2017-12-30T08:55:02.803Z,99.10
2017-12-30T08:57:30.308Z,99.50
2017-12-30T08:59:58.645Z,99.20
2017-12-30T09:02:26.211Z,99.20
2017-12-30T09:04:53.735Z,99.00
2017-12-30T09:07:21.287Z,98.80
2017-12-30T09:09:50.419Z,98.80
2017-12-30T09:12:18.724Z,99.00
2017-12-30T09:14:46.234Z,99.00
2017-12-30T09:17:13.832Z,98.90
2017-12-30T09:19:41.343Z,98.80
2017-12-30T09:22:08.931Z,98.60
2017-12-30T09:24:36.895Z,99.00
2017-12-30T09:27:04.399Z,98.70
2017-12-30T09:29:31.938Z,98.60
2017-12-30T09:31:59.452Z,98.70
2017-12-30T09:34:26.991Z,98.80
2017-12-30T09:36:55.279Z,98.90
2017-12-30T09:39:22.835Z,98.80
2017-12-30T09:41:50.459Z,99.20
2017-12-30T09:44:17.999Z,99.10
2017-12-30T09:46:45.536Z,99.20
2017-12-30T09:49:13.874Z,99.90
2017-12-30T09:51:41.422Z,99.90
2017-12-30T09:54:08.932Z,99.90
2017-12-30T09:56:36.533Z,99.60
2017-12-30T09:59:04.051Z,99.50
2017-12-30T10:01:31.613Z,99.30
2017-12-30T10:03:59.119Z,99.00
2017-12-30T10:06:26.670Z,98.80
2017-12-30T10:08:54.195Z,97.80
2017-12-30T10:11:21.742Z,97.50
2017-12-30T10:13:49.251Z,97.40
2017-12-30T10:16:17.541Z,97.20
2017-12-30T10:18:45.843Z,97.30
2017-12-30T10:21:13.352Z,97.30
2017-12-30T10:23:40.904Z,97.10
2017-12-30T10:26:08.426Z,96.40
2017-12-30T10:28:35.981Z,96.60
2017-12-30T10:31:03.496Z,96.40
2017-12-30T10:33:31.807Z,96.20
2017-12-30T10:35:59.361Z,96.20
2017-12-30T10:38:26.868Z,96.00
2017-12-30T10:40:54.415Z,95.80
2017-12-30T10:43:21.915Z,95.70
2017-12-30T10:45:49.452Z,95.40
2017-12-30T10:48:16.960Z,95.40
2017-12-30T10:50:44.511Z,95.70
2017-12-30T10:53:12.386Z,95.90
2017-12-30T10:55:39.915Z,96.10
2017-12-30T10:58:07.456Z,96.40
2017-12-30T11:00:40.703Z,96.30
2017-12-30T11:03:08.256Z,95.90
2017-12-30T11:05:35.783Z,95.80
2017-12-30T11:08:03.330Z,95.90
2017-12-30T11:10:31.613Z,96.00
2017-12-30T11:12:59.220Z,96.00
2017-12-30T11:15:26.737Z,96.40
2017-12-30T11:17:55.021Z,96.10
2017-12-30T11:20:23.174Z,96.30
2017-12-30T11:22:50.783Z,96.10
2017-12-30T11:25:18.294Z,96.40
2017-12-30T11:27:45.804Z,96.80
2017-12-30T11:30:13.348Z,97.00
2017-12-30T11:32:40.852Z,97.10
2017-12-30T11:35:08.399Z,97.00
2017-12-30T11:37:35.910Z,96.50
2017-12-30T11:40:03.454Z,96.70
2017-12-30T11:42:30.964Z,96.80
2017-12-30T11:44:58.532Z,96.40
2017-12-30T11:47:26.054Z,96.40
2017-12-30T11:49:53.604Z,96.40
2017-12-30T11:52:21.896Z,95.30
2017-12-30T11:54:50.202Z,94.80
2017-12-30T11:57:17.719Z,94.80
2017-12-30T11:59:45.274Z,94.70
2017-12-30T12:02:12.791Z,94.70
2017-12-30T12:04:41.072Z,94.70
2017-12-30T12:07:08.632Z,94.70
2017-12-30T12:09:36.207Z,95.00
2017-12-30T12:12:03.735Z,94.50
2017-12-30T12:14:31.240Z,94.10
2017-12-30T12:16:58.796Z,94.10
2017-12-30T12:19:26.319Z,93.90
2017-12-30T12:21:54.639Z,93.00
2017-12-30T12:24:22.194Z,93.10
2017-12-30T12:26:49.806Z,92.90
2017-12-30T12:29:17.967Z,91.60
2017-12-30T12:31:45.487Z,91.60
2017-12-30T12:34:13.043Z,91.80
2017-12-30T12:36:40.588Z,92.20
2017-12-30T12:39:08.135Z,91.50
2017-12-30T12:41:35.655Z,91.70
2017-12-30T12:44:03.220Z,91.00
2017-12-30T12:46:30.755Z,90.80
2017-12-30T12:48:59.071Z,90.80
2017-12-30T12:51:26.882Z,90.80
2017-12-30T12:53:54.460Z,90.20
2017-12-30T12:56:21.977Z,90.70
2017-12-30T12:58:49.487Z,90.40
2017-12-30T13:01:17.030Z,90.10
2017-12-30T13:03:44.559Z,90.20
2017-12-30T13:06:12.889Z,89.70
2017-12-30T13:08:40.442Z,89.70
2017-12-30T13:11:07.986Z,88.40
2017-12-30T13:13:35.548Z,87.10
2017-12-30T13:16:03.099Z,87.30
2017-12-30T13:18:30.607Z,85.90
2017-12-30T13:20:58.180Z,85.10
2017-12-30T13:23:25.703Z,84.90
2017-12-30T13:25:53.284Z,85.90
2017-12-30T13:28:20.841Z,85.80
2017-12-30T13:30:49.496Z,84.70
2017-12-30T13:33:17.820Z,84.80
2017-12-30T13:35:45.334Z,84.80
2017-12-30T13:38:12.886Z,85.00
2017-12-30T13:40:40.410Z,83.70
2017-12-30T13:43:08.724Z,83.20
2017-12-30T13:45:36.252Z,82.60
2017-12-30T13:48:03.806Z,82.60
2017-12-30T13:50:31.802Z,81.70
2017-12-30T13:52:59.317Z,80.70
2017-12-30T13:55:27.644Z,80.90
2017-12-30T13:57:55.171Z,80.90
2017-12-30T14:00:24.318Z,79.60
2017-12-30T14:02:52.237Z,79.70
2017-12-30T14:05:19.812Z,79.60
2017-12-30T14:07:47.329Z,78.50
2017-12-30T14:10:14.914Z,79.10
2017-12-30T14:12:42.460Z,79.00
2017-12-30T14:15:10.772Z,76.90
2017-12-30T14:17:38.304Z,76.90
2017-12-30T14:20:06.638Z,77.30
2017-12-30T14:22:34.195Z,76.50
2017-12-30T14:25:01.712Z,76.20
2017-12-30T14:27:29.254Z,76.20
2017-12-30T14:29:56.785Z,75.70
2017-12-30T14:32:26.048Z,75.80
2017-12-30T14:34:53.579Z,75.70
2017-12-30T14:37:21.894Z,75.80
2017-12-30T14:39:50.315Z,75.80
2017-12-30T14:42:17.902Z,74.30
2017-12-30T14:44:45.456Z,74.70
2017-12-30T14:47:12.975Z,74.30
2017-12-30T14:49:40.524Z,75.10
2017-12-30T14:52:08.055Z,75.70
2017-12-30T14:54:36.416Z,74.70
2017-12-30T14:57:04.704Z,75.60
2017-12-30T14:59:33.023Z,75.60
2017-12-30T15:02:00.540Z,75.60
2017-12-30T15:04:28.111Z,75.70
2017-12-30T15:06:55.629Z,75.70
2017-12-30T15:09:23.239Z,76.00
2017-12-30T15:11:50.779Z,76.10
2017-12-30T15:14:18.300Z,75.80
2017-12-30T15:16:45.868Z,76.10
2017-12-30T15:19:13.391Z,76.50
2017-12-30T15:21:40.936Z,76.00
2017-12-30T15:24:09.223Z,75.00
2017-12-30T15:26:36.776Z,74.90
2017-12-30T15:29:04.359Z,75.00
2017-12-30T15:31:34.428Z,75.20
2017-12-30T15:34:02.253Z,75.00
2017-12-30T15:36:29.824Z,74.80
2017-12-30T15:38:57.350Z,75.00
2017-12-30T15:41:24.883Z,75.30
2017-12-30T15:43:52.436Z,75.50
2017-12-30T15:46:19.951Z,75.50
2017-12-30T15:48:48.262Z,76.80
2017-12-30T15:51:15.791Z,76.70
2017-12-30T15:53:43.345Z,77.10
2017-12-30T15:56:10.864Z,77.40
2017-12-30T15:58:38.415Z,77.60
2017-12-30T16:01:05.936Z,77.30
2017-12-30T16:03:33.493Z,77.50
2017-12-30T16:06:01.031Z,77.70
2017-12-30T16:08:28.594Z,77.60
2017-12-30T16:10:56.108Z,77.60
2017-12-30T16:13:23.628Z,77.60
2017-12-30T16:15:51.192Z,77.70
2017-12-30T16:18:18.722Z,78.40
2017-12-30T16:20:46.373Z,78.50
2017-12-30T16:23:13.896Z,78.80
2017-12-30T16:25:41.448Z,78.40
2017-12-30T16:28:09.004Z,77.60
2017-12-30T16:30:36.831Z,77.70
2017-12-30T16:33:05.047Z,77.80
2017-12-30T16:35:32.616Z,77.70
2017-12-30T16:38:00.128Z,78.00
2017-12-30T16:40:27.651Z,79.30
2017-12-30T16:42:55.211Z,78.60
2017-12-30T16:45:22.732Z,78.80
2017-12-30T16:47:50.291Z,79.00
2017-12-30T16:50:17.887Z,79.30
2017-12-30T16:52:45.456Z,79.70
2017-12-30T16:55:13.840Z,79.90
2017-12-30T16:57:41.409Z,80.50
2017-12-30T17:00:08.923Z,81.10
2017-12-30T17:02:36.429Z,81.00
2017-12-30T17:05:03.984Z,81.20
2017-12-30T17:07:31.519Z,81.30
2017-12-30T17:09:59.074Z,81.50
2017-12-30T17:12:26.655Z,81.50
2017-12-30T17:14:54.215Z,81.50
2017-12-30T17:17:21.719Z,81.40
2017-12-30T17:19:49.267Z,80.30
2017-12-30T17:22:16.779Z,79.10
2017-12-30T17:24:44.444Z,79.10
2017-12-30T17:27:11.991Z,79.50
2017-12-30T17:29:39.516Z,80.00
2017-12-30T17:32:07.071Z,80.10
2017-12-30T17:34:34.584Z,80.30
2017-12-30T17:37:02.907Z,80.40
2017-12-30T17:39:30.439Z,80.40
2017-12-30T17:41:58.759Z,80.70
2017-12-30T17:44:26.283Z,80.70
2017-12-30T17:46:53.842Z,80.40
2017-12-30T17:49:21.354Z,80.50
2017-12-30T17:51:48.908Z,80.10
2017-12-30T17:54:17.196Z,81.10
2017-12-30T17:56:44.912Z,81.00
2017-12-30T17:59:12.435Z,81.10
2017-12-30T18:01:39.984Z,81.50
2017-12-30T18:04:07.535Z,81.80
2017-12-30T18:06:35.047Z,81.90
2017-12-30T18:09:02.631Z,82.50
2017-12-30T18:11:30.159Z,82.80
2017-12-30T18:13:57.719Z,83.40
2017-12-30T18:16:25.236Z,83.60
2017-12-30T18:18:52.788Z,83.70
2017-12-30T18:21:20.316Z,83.60
2017-12-30T18:23:48.658Z,83.60
2017-12-30T18:26:16.191Z,83.50
2017-12-30T18:28:43.751Z,83.80
2017-12-30T18:31:11.305Z,84.20
2017-12-30T18:33:38.816Z,84.80
2017-12-30T18:36:06.357Z,85.10
2017-12-30T18:38:33.885Z,85.50
2017-12-30T18:41:01.456Z,85.30
2017-12-30T18:43:29.003Z,85.70
2017-12-30T18:45:56.551Z,86.00
2017-12-30T18:48:24.082Z,86.30
2017-12-30T18:50:51.651Z,86.60
2017-12-30T18:53:19.181Z,86.10
2017-12-30T18:55:46.743Z,86.30
2017-12-30T18:58:15.067Z,85.70
2017-12-30T19:00:42.595Z,85.70
2017-12-30T19:03:10.920Z,85.40
2017-12-30T19:05:38.427Z,85.40
2017-12-30T19:08:05.970Z,84.10
2017-12-30T19:10:33.491Z,83.70
2017-12-30T19:13:01.044Z,83.80
2017-12-30T19:15:28.558Z,84.10
2017-12-30T19:17:56.902Z,84.80
2017-12-30T19:20:24.436Z,84.80
2017-12-30T19:22:51.996Z,85.40
2017-12-30T19:25:19.619Z,85.50
2017-12-30T19:27:47.967Z,85.50
2017-12-30T19:30:15.519Z,85.40
2017-12-30T19:32:43.807Z,85.00
2017-12-30T19:35:12.123Z,84.30
2017-12-30T19:37:39.631Z,84.20
2017-12-30T19:40:07.229Z,83.70
2017-12-30T19:42:34.747Z,84.00
2017-12-30T19:45:02.329Z,84.20
2017-12-30T19:47:29.899Z,84.20
2017-12-30T19:49:57.411Z,84.10
2017-12-30T19:52:24.962Z,83.70
2017-12-30T19:54:52.478Z,83.20
2017-12-30T19:57:20.803Z,83.20
2017-12-30T19:59:48.315Z,83.20
2017-12-30T20:02:15.859Z,83.00
2017-12-30T20:04:43.496Z,83.10
2017-12-30T20:07:11.076Z,83.50
2017-12-30T20:09:38.591Z,83.50
2017-12-30T20:12:06.164Z,82.70
2017-12-30T20:14:33.969Z,82.50
2017-12-30T20:17:01.483Z,82.80
2017-12-30T20:19:29.035Z,82.90
2017-12-30T20:21:57.316Z,83.00
2017-12-30T20:24:25.647Z,82.80
2017-12-30T20:26:53.157Z,82.80
2017-12-30T20:29:20.783Z,83.30
2017-12-30T20:31:48.294Z,83.20
2017-12-30T20:34:15.869Z,83.30
2017-12-30T20:36:43.401Z,83.40
2017-12-30T20:39:11.011Z,83.60
2017-12-30T20:41:38.600Z,82.70
2017-12-30T20:44:06.114Z,82.70
2017-12-30T20:46:33.874Z,82.50
2017-12-30T20:49:01.409Z,82.50
2017-12-30T20:51:28.973Z,82.60
2017-12-30T20:53:56.497Z,82.70
2017-12-30T20:56:24.126Z,82.20
2017-12-30T20:58:51.652Z,82.40
2017-12-30T21:01:19.208Z,82.30
2017-12-30T21:03:46.729Z,82.50
2017-12-30T21:06:14.288Z,82.60
2017-12-30T21:08:41.820Z,83.50
2017-12-30T21:11:09.360Z,82.90
2017-12-30T21:13:36.923Z,82.40
2017-12-30T21:16:04.513Z,82.70
2017-12-30T21:18:35.617Z,83.00
2017-12-30T21:21:03.217Z,83.20
2017-12-30T21:23:31.684Z,83.70
2017-12-30T21:25:59.389Z,83.70
2017-12-30T21:28:30.648Z,84.10
2017-12-30T21:30:58.283Z,84.90
2017-12-30T21:33:25.845Z,84.90
2017-12-30T21:35:54.191Z,84.90
2017-12-30T21:38:21.834Z,84.80
2017-12-30T21:40:49.458Z,84.90
2017-12-30T21:43:17.092Z,84.80
2017-12-30T21:45:44.643Z,85.10
2017-12-30T21:48:12.941Z,85.60
2017-12-30T21:50:40.559Z,85.60
2017-12-30T21:53:08.083Z,85.70
2017-12-30T21:55:35.647Z,85.80
2017-12-30T21:58:03.941Z,86.20
2017-12-30T22:00:31.520Z,86.20
2017-12-30T22:02:59.099Z,86.50
2017-12-30T22:05:26.671Z,86.80
2017-12-30T22:07:54.247Z,86.50
2017-12-30T22:10:21.838Z,86.50
2017-12-30T22:12:49.456Z,86.40
2017-12-30T22:15:16.988Z,86.50
2017-12-30T22:17:44.578Z,86.20
2017-12-30T22:20:12.127Z,86.30
2017-12-30T22:22:39.695Z,86.00
2017-12-30T22:25:07.218Z,85.90
2017-12-30T22:27:35.503Z,86.80
2017-12-30T22:30:03.107Z,86.10
2017-12-30T22:32:30.578Z,85.70
2017-12-30T22:34:58.901Z,85.20
2017-12-30T22:37:26.415Z,85.20
2017-12-30T22:39:53.994Z,85.40
2017-12-30T22:42:22.318Z,85.50
2017-12-30T22:44:49.875Z,85.30
2017-12-30T22:47:17.399Z,85.90
2017-12-30T22:49:44.948Z,85.80
2017-12-30T22:52:12.516Z,86.10
2017-12-30T22:54:40.031Z,86.30
2017-12-30T22:57:07.594Z,85.60
2017-12-30T22:59:35.111Z,85.80
2017-12-30T23:02:02.659Z,85.70
2017-12-30T23:04:30.983Z,86.10
2017-12-30T23:06:58.534Z,86.10
2017-12-30T23:09:26.051Z,86.60
2017-12-30T23:11:53.630Z,87.00
2017-12-30T23:14:21.151Z,86.80
2017-12-30T23:16:48.729Z,87.30
2017-12-30T23:19:16.274Z,86.80
2017-12-30T23:21:43.892Z,86.60
2017-12-30T23:24:11.447Z,87.00
2017-12-30T23:26:39.769Z,87.20
2017-12-30T23:29:07.337Z,87.10
2017-12-30T23:31:34.884Z,87.20
2017-12-30T23:34:02.431Z,87.10
2017-12-30T23:36:29.939Z,87.60
2017-12-30T23:38:57.509Z,87.10
2017-12-30T23:41:25.027Z,87.40
2017-12-30T23:43:52.584Z,87.30
2017-12-30T23:46:20.100Z,87.30
2017-12-30T23:48:47.669Z,87.70
2017-12-30T23:51:15.951Z,89.00
2017-12-30T23:53:43.494Z,88.70
2017-12-30T23:56:11.049Z,89.20
2017-12-30T23:58:38.627Z,89.50
